Cactus Peak, Santa Catalina Island Weather observations

Data are for 10 minute period ending at time listed.
 Day   Time   Solar   Ave.   Ave.  Ave.  Vector    Max.   Stn.    Total
  of    of     Rad.   Air    Rel.  Wind   Wind     Wind   Baro.  Precip.
Year   Day            Temp.  Hum.  Speed  Dir.     Gust   Pres.         
2026   (PST)   W/m2    F      %     mph   deg.      mph    mb.     in.  
------------------------------------------------------------------------
 243   11:40  915.0    74   60.8     4    196.1    10.8    999.0   0.00  
 243   11:50  913.0    76   56.9     4    233.3    10.2    999.0   0.00  
 243   12:00  918.0    74   61.2     8    215.3    11.3    999.0   0.00  
 243   12:10  919.0    73   62.4     7    214.8    12.5    999.0   0.00  
 243   12:20  917.0    73   61.8     7    218.7    12.5    999.0   0.00  
 243   12:30  911.0    75   58.4     3    224.4     9.6    999.0   0.00  
 243   12:40  902.0    75   58.0     6    225.1    10.2    999.0   0.00  
 243   12:50  891.0    75   57.5     3    351.0     7.8    999.0   0.00  
 243   13:00  876.0    74   60.1     1      3.5     6.0    999.0   0.00  
 243   13:10  864.0    73   61.8     1     13.1    10.2    999.0   0.00  
 243   13:20  851.0    73   61.6     6      8.5     9.6    999.0   0.00  
 243   13:30  838.0    73   59.8     2    341.5     9.6    999.0   0.00  
 243   13:40  821.0    74   58.1     6    342.2     9.0    999.0   0.00  
 243   13:50  803.0    73   60.0     8      8.1    10.8    999.0   0.00  
 243   14:00  784.0    73   60.3     7    355.0    11.9    999.0   0.00  
 243   14:10  763.0    73   58.0     3    342.1     9.0    999.0   0.00  
 243   14:20  739.0    74   55.9     6    355.9     9.6    999.0   0.00  
 243   14:30  710.0    74   56.1     3    355.3     8.4    999.0   0.00  
 243   14:40  687.0    74   58.2     5    346.7     9.0    999.0   0.00  
 243   14:50  660.0    75   57.7     5    339.9     8.4    999.0   0.00  
 243   15:00  631.0    75   57.1     5    346.4     8.4    999.0   0.00  
 243   15:10  602.0    74   60.1     4    349.9     8.4    999.0   0.00  
 243   15:20  575.0    72   64.2     6      8.5     9.6    999.0   0.00  
 243   15:30  548.0    73   60.0     6    268.9    10.2    999.0   0.00  
 243   15:40  519.0    71   64.1     7    306.2     9.6    999.0   0.00  
 243   15:50  487.0    71   65.1     7    342.3    10.8    999.0   0.00  
 243   16:00  456.0    71   65.0     7    336.3    10.2    999.0   0.00  
 243   16:10  424.0    71   63.5     4    336.3     9.6    999.0   0.00  
 243   16:20  391.0    71   62.3     7    318.7    10.8    999.0   0.00  
 243   16:30  359.0    69   65.7     8    325.8    11.9    999.0   0.00  
 243   16:40  324.0    68   70.2     8    347.6    11.3    999.0   0.00  
 243   16:50  289.0    67   73.8    11    347.4    14.3    999.0   0.00  
 243   17:00  255.0    65   77.6    11    347.3    13.7    999.0   0.00  
 243   17:10  220.0    65   79.7    10    353.0    13.1    999.0   0.00  
 243   17:20  186.0    64   81.1    10    355.9    13.1    999.0   0.00  
 243   17:30  152.0    64   82.5     9    355.0    13.1    999.0   0.00  
 243   17:40  120.0    63   85.0    10    358.5    13.1    999.0   0.00  
 243   17:50   87.0    63   85.9    10    349.0    11.9    999.0   0.00  
 243   18:00   53.0    62   87.4     9    352.6    11.9    999.0   0.00  
 243   18:10   28.0    62   69.2     9    347.6    11.3    999.0   0.00  
 243   18:20    9.0    61    0.4     9    351.7    11.3    999.0   0.00  
 243   18:30    3.0    60    0.4    10    350.6    12.5    999.0   0.00  
 243   18:40    0.0    60   36.2     9    348.6    12.5    999.0   0.00  
 243   18:50    0.0    60   99.9    10    354.7    12.5    999.0   0.00  
 243   19:00    0.0    60   99.9    10    353.4    11.9    999.0   0.00  
 243   19:10    0.0    60   99.9    11    357.3    13.1    999.0   0.00  
 243   19:20    0.0    59   99.9     8      5.4    13.1    999.0   0.00  
 243   19:30    0.0    59   99.9     8      0.5    11.3    999.0   0.00  
 243   19:40    0.0    59   99.9     9      4.2    11.3    999.0   0.00  
 243   19:50    0.0    59   99.9     9      3.6    10.8    999.0   0.00  
 243   20:00    0.0    59   99.9     9    359.9    10.2    999.0   0.00  
 243   20:10    0.0    59   99.9     9    349.9    10.8    999.0   0.00  
 243   20:20    0.0    59   99.9    10    356.0    11.9    999.0   0.00  
 243   20:30    0.0    59   99.9    10    354.4    12.5    999.0   0.00  
 243   20:40    0.0    59   99.9    10      1.8    11.9    999.0   0.00  
 243   20:50    0.0    59   99.9    10    357.7    11.9    999.0   0.00  
 243   21:00    0.0    59   99.9    10      4.1    12.5    999.0   0.00  
 243   21:10    0.0    59   99.9    11      6.7    13.1    999.0   0.00  
 243   21:20    0.0    59   99.9    10      8.2    13.1    999.0   0.00  
 243   21:30    0.0    59   99.9    10      6.2    11.9    999.0   0.00  
 243   21:40    0.0    59   99.9    10      8.2    13.7    999.0   0.00  
 243   21:50    0.0    59   99.9     8      7.7    11.3    999.0   0.00  
 243   22:00    0.0    59   99.9     7     13.1    10.2    999.0   0.00  
 243   22:10    0.0    59   99.9     7    349.9    10.2    999.0   0.00  
 243   22:20    0.0    59   99.9     8     12.0    10.2    999.0   0.00  
 243   22:30    0.0    59   99.9     8     11.1    10.8    999.0   0.00  
 243   22:40    0.0    59   99.9     7      6.5    10.2    999.0   0.00  
 243   22:50    0.0    59   99.9     7    359.7    11.9    999.0   0.00  
 243   23:00    0.0    59   99.9     9      1.5    11.9    999.0   0.00  
 243   23:10    0.0    59   99.9     7     10.1     9.6    999.0   0.00  
 243   23:20    0.0    59   99.9     6      6.3     8.4    999.0   0.00  
 243   23:30    0.0    59   99.9     6    354.0     9.0    999.0   0.00  
 243   23:40    0.0    59   99.9     6    348.3     7.8    999.0   0.00  
 243   23:50    0.0    58   99.9     7    333.3     9.6    999.0   0.00  
 244    0:00    0.0    58   99.9     8    351.1    10.8    999.0   0.00  
 244    0:10    0.0    58   99.9     8    352.9    11.3    999.0   0.00  
 244    0:20    0.0    58   99.9    10      6.8    13.1    999.0   0.00  
 244    0:30    0.0    58   99.9     7    355.0    10.8    999.0   0.00  
 244    0:40    0.0    58   99.9     8      7.1    11.9    999.0   0.00  
 244    0:50    0.0    58   99.9     9    353.9    14.3    999.0   0.00  
 244    1:00    0.0    58   99.9     9      0.5    12.5    999.0   0.00  
 244    1:10    0.0    58   99.9     9    359.7    10.8    999.0   0.00  
 244    1:20    0.0    58   99.9     9      1.2    11.9    999.0   0.00  
 244    1:30    0.0    58   99.9    10    357.9    13.7    999.0   0.00  
 244    1:40    0.0    58   99.9     9    357.6    11.9    999.0   0.00  
 244    1:50    0.0    58   99.9     9    359.4    12.5    999.0   0.00  
 244    2:00    0.0    58   99.9    10    350.3    12.5    999.0   0.00  
 244    2:10    0.0    58   99.9    10    357.2    13.1    999.0   0.00  
 244    2:20    0.0    58   99.9    10    356.8    12.5    999.0   0.00  
 244    2:30    0.0    58   99.9    11    349.6    13.7    999.0   0.00  
 244    2:40    0.0    58   99.9    10    356.4    12.5    999.0   0.00  
 244    2:50    0.0    58   99.9    10    343.3    12.5    999.0   0.00  
 244    3:00    0.0    58   99.9    10    359.2    11.9    999.0   0.00  
 244    3:10    0.0    58   99.9     9    349.0    10.8    999.0   0.00  
 244    3:20    0.0    58   99.9     9    359.0    10.2    999.0   0.00  
 244    3:30    0.0    58   99.9     9    356.2    10.2    999.0   0.00  
 244    3:40    0.0    58   99.9     8    349.1    10.2    999.0   0.00  
 244    3:50    0.0    58   99.9     8    348.2     9.6    999.0   0.00  
 244    4:00    0.0    58   99.9     8    359.5    11.3    999.0   0.00  
 244    4:10    0.0    58   99.9     9      8.4    13.1    999.0   0.00  
 244    4:20    0.0    58   99.9    10     18.6    13.7    999.0   0.00  
 244    4:30    0.0    58   99.9     9      9.2    13.1    999.0   0.00  
 244    4:40    0.0    58   99.9     9     10.4    10.8    999.0   0.00  
 244    4:50    0.0    58   99.9     7      4.4     9.6    999.0   0.00  
 244    5:00    0.0    57   99.9     6    333.1     7.8    999.0   0.00  
 244    5:10    0.0    57   99.9     5    331.1     7.2    999.0   0.00  
 244    5:20    0.0    57   99.9     6    337.9     7.2    999.0   0.00  
 244    5:30    2.0    57   99.9     5    322.6     7.8    999.0   0.00  
 244    5:40    9.0    57   99.9     5    324.3     7.2    999.0   0.00  
 244    5:50   24.0    57   99.9     4    325.5     5.4    999.0   0.00  
 244    6:00   63.0    57   99.9     4    335.0     4.8    999.0   0.00  
 244    6:10   98.0    58   99.9     2    328.4     4.8    999.0   0.00  
 244    6:20  127.0    60   99.9     1    351.6     0.6    999.0   0.00  
 244    6:30  156.0    61    9.9     3    144.3     6.6    999.0   0.00  
 244    6:40  186.0    60    0.4     3    154.1     6.6    999.0   0.00  
 244    6:50  216.0    60    0.4     3    167.7     5.4    999.0   0.00  
 244    7:00  187.0    61   64.7     3    167.7     4.8    999.0   0.00  
 244    7:10  186.0    61   93.9     2    182.3     4.8    999.0   0.00  
 244    7:20  281.0    62   84.8     1    151.3     4.2    999.0   0.00  
 244    7:30  330.0    63   81.2     1    302.4     0.6    999.0   0.00  
 244    7:40  364.0    65   75.3     4    342.7     7.8    999.0   0.00  
 244    7:50  393.0    64   77.8     7    358.2    10.8    999.0   0.00  
 244    8:00  451.0    63   80.4     8      3.5    10.8    999.0   0.00  
 244    8:10  487.0    63   79.9     6      9.8     9.6    999.0   0.00  
 244    8:20  513.0    64   77.7     6    359.9     9.6    999.0   0.00  
 244    8:30  541.0    64   74.8     7    342.5    10.8    999.0   0.00  
 244    8:40  573.0    65   73.4     8      0.8    11.9    999.0   0.00  
 244    8:50  602.0    65   71.8     7    356.9    10.2    999.0   0.00  
 244    9:00  630.0    66   70.6     6    344.5     8.4    999.0   0.00  
 244    9:10  656.0    66   69.8     5    336.1     9.0    999.0   0.00  
 244    9:20  683.0    67   68.0     7    358.1    10.8    999.0   0.00  
 244    9:30  708.0    68   66.1     8    356.0    10.8    999.0   0.00  
 244    9:40  734.0    68   65.8     8    359.0    10.2    999.0   0.00  
 244    9:50  758.0    68   65.1     8    359.9    10.8    999.0   0.00  
 244   10:00  483.0    68   64.2     6    354.4     9.0    999.0   0.00  
 244   10:10  655.0    69   62.1     5      2.3     9.6    999.0   0.00  
 244   10:20  815.0    70   61.7     7      0.6     9.6    999.0   0.00  
 244   10:30  831.0    70   60.2     5    359.9    11.3    999.0   0.00  
 244   10:40  846.0    72   58.6     4    231.5    13.1    999.0   0.00  
 244   10:50  860.0    71   60.8     7    207.2    10.8    999.0   0.00  
 244   11:00  875.0    69   63.7     6    210.5    10.8    999.0   0.00  
 244   11:10  881.0    72   58.0     4    323.4    10.8    999.0   0.00  
 244   11:20  888.0    73   55.6     3    359.6     6.6    999.0   0.00  
 244   11:30  894.0    73   55.2     3    306.5     7.2    999.0   0.00  

Return to Cactus Peak graphs page.


Western Regional Climate Center,wrcc@dri.edu